sensor_id;sensor_type;location;lat;lon;timestamp;P1;durP1;ratioP1;P2;durP2;ratioP2
70253;SDS011;57649;42.968;1.608;2023-03-31T00:01:29;12.25;;;4.18;;
70253;SDS011;57649;42.968;1.608;2023-03-31T00:03:58;8.75;;;4.38;;
70253;SDS011;57649;42.968;1.608;2023-03-31T00:06:29;11.07;;;4.50;;
70253;SDS011;57649;42.968;1.608;2023-03-31T00:09:02;14.88;;;4.78;;
70253;SDS011;57649;42.968;1.608;2023-03-31T00:11:35;6.97;;;3.72;;
70253;SDS011;57649;42.968;1.608;2023-03-31T00:14:02;9.10;;;3.90;;
70253;SDS011;57649;42.968;1.608;2023-03-31T00:16:31;10.45;;;4.50;;
70253;SDS011;57649;42.968;1.608;2023-03-31T00:18:57;7.07;;;3.78;;
70253;SDS011;57649;42.968;1.608;2023-03-31T00:21:22;12.82;;;4.32;;
70253;SDS011;57649;42.968;1.608;2023-03-31T00:23:52;9.18;;;4.30;;
70253;SDS011;57649;42.968;1.608;2023-03-31T00:26:18;8.45;;;3.70;;
70253;SDS011;57649;42.968;1.608;2023-03-31T00:28:46;12.60;;;4.43;;
70253;SDS011;57649;42.968;1.608;2023-03-31T00:31:11;11.38;;;4.00;;
70253;SDS011;57649;42.968;1.608;2023-03-31T00:33:36;13.90;;;3.70;;
70253;SDS011;57649;42.968;1.608;2023-03-31T00:36:02;12.40;;;4.50;;
70253;SDS011;57649;42.968;1.608;2023-03-31T00:38:30;7.72;;;4.03;;
70253;SDS011;57649;42.968;1.608;2023-03-31T00:40:57;10.43;;;4.32;;
70253;SDS011;57649;42.968;1.608;2023-03-31T00:43:27;14.55;;;4.22;;
70253;SDS011;57649;42.968;1.608;2023-03-31T00:46:06;8.32;;;3.60;;
70253;SDS011;57649;42.968;1.608;2023-03-31T00:48:45;9.27;;;3.97;;
70253;SDS011;57649;42.968;1.608;2023-03-31T00:51:16;16.65;;;4.47;;
70253;SDS011;57649;42.968;1.608;2023-03-31T00:56:19;8.43;;;3.58;;
70253;SDS011;57649;42.968;1.608;2023-03-31T00:58:45;11.05;;;4.13;;
70253;SDS011;57649;42.968;1.608;2023-03-31T01:01:13;9.60;;;4.13;;
70253;SDS011;57649;42.968;1.608;2023-03-31T01:03:44;11.05;;;4.00;;
70253;SDS011;57649;42.968;1.608;2023-03-31T01:06:12;11.40;;;3.63;;
70253;SDS011;57649;42.968;1.608;2023-03-31T01:08:41;8.25;;;3.83;;
70253;SDS011;57649;42.968;1.608;2023-03-31T01:11:09;12.00;;;3.70;;
70253;SDS011;57649;42.968;1.608;2023-03-31T01:16:04;8.48;;;3.65;;
70253;SDS011;57649;42.968;1.608;2023-03-31T01:18:30;16.92;;;5.10;;
70253;SDS011;57649;42.968;1.608;2023-03-31T01:52:15;9.43;;;3.90;;
70253;SDS011;57649;42.968;1.608;2023-03-31T01:54:49;9.57;;;3.90;;
70253;SDS011;57649;42.968;1.608;2023-03-31T01:57:23;9.75;;;4.10;;
70253;SDS011;57649;42.968;1.608;2023-03-31T02:00:09;13.10;;;3.97;;
70253;SDS011;57649;42.968;1.608;2023-03-31T02:02:37;9.38;;;3.70;;
70253;SDS011;57649;42.968;1.608;2023-03-31T02:05:11;11.13;;;4.13;;
70253;SDS011;57649;42.968;1.608;2023-03-31T02:07:42;12.45;;;8.10;;
70253;SDS011;57649;42.968;1.608;2023-03-31T02:10:14;38.38;;;24.08;;
70253;SDS011;57649;42.968;1.608;2023-03-31T02:12:42;49.17;;;29.33;;
70253;SDS011;57649;42.968;1.608;2023-03-31T02:15:10;42.95;;;26.48;;
70253;SDS011;57649;42.968;1.608;2023-03-31T02:17:42;58.53;;;33.22;;
70253;SDS011;57649;42.968;1.608;2023-03-31T02:20:11;33.03;;;18.48;;
70253;SDS011;57649;42.968;1.608;2023-03-31T02:22:40;24.30;;;18.60;;
70253;SDS011;57649;42.968;1.608;2023-03-31T02:25:10;14.27;;;8.00;;
70253;SDS011;57649;42.968;1.608;2023-03-31T02:27:40;9.32;;;4.63;;
70253;SDS011;57649;42.968;1.608;2023-03-31T02:30:08;10.73;;;4.40;;
70253;SDS011;57649;42.968;1.608;2023-03-31T02:32:37;10.68;;;3.85;;
70253;SDS011;57649;42.968;1.608;2023-03-31T02:35:04;8.88;;;4.18;;
70253;SDS011;57649;42.968;1.608;2023-03-31T02:37:32;10.73;;;4.25;;
70253;SDS011;57649;42.968;1.608;2023-03-31T02:39:59;8.82;;;4.13;;
70253;SDS011;57649;42.968;1.608;2023-03-31T02:42:29;13.68;;;4.70;;
70253;SDS011;57649;42.968;1.608;2023-03-31T02:45:00;15.15;;;6.85;;
70253;SDS011;57649;42.968;1.608;2023-03-31T02:47:27;9.48;;;5.68;;
70253;SDS011;57649;42.968;1.608;2023-03-31T02:49:53;10.50;;;4.20;;
70253;SDS011;57649;42.968;1.608;2023-03-31T02:58:37;12.23;;;4.30;;
70253;SDS011;57649;42.968;1.608;2023-03-31T03:01:14;9.30;;;4.25;;
70253;SDS011;57649;42.968;1.608;2023-03-31T03:14:52;9.20;;;3.95;;
70253;SDS011;57649;42.968;1.608;2023-03-31T03:17:24;9.68;;;3.95;;
70253;SDS011;57649;42.968;1.608;2023-03-31T03:19:53;8.52;;;3.65;;
70253;SDS011;57649;42.968;1.608;2023-03-31T03:22:20;8.40;;;3.92;;
70253;SDS011;57649;42.968;1.608;2023-03-31T03:24:46;9.68;;;4.43;;
70253;SDS011;57649;42.968;1.608;2023-03-31T03:27:11;6.80;;;3.53;;
70253;SDS011;57649;42.968;1.608;2023-03-31T03:29:37;10.13;;;3.95;;
70253;SDS011;57649;42.968;1.608;2023-03-31T03:32:02;10.05;;;3.85;;
70253;SDS011;57649;42.968;1.608;2023-03-31T03:34:28;12.55;;;4.18;;
70253;SDS011;57649;42.968;1.608;2023-03-31T03:36:53;8.35;;;3.67;;
70253;SDS011;57649;42.968;1.608;2023-03-31T03:39:18;9.85;;;3.90;;
70253;SDS011;57649;42.968;1.608;2023-03-31T03:41:44;9.55;;;3.58;;
70253;SDS011;57649;42.968;1.608;2023-03-31T03:44:10;7.68;;;3.80;;
70253;SDS011;57649;42.968;1.608;2023-03-31T03:46:36;9.07;;;3.60;;
70253;SDS011;57649;42.968;1.608;2023-03-31T03:49:01;11.02;;;4.25;;
70253;SDS011;57649;42.968;1.608;2023-03-31T03:51:27;8.90;;;3.47;;
70253;SDS011;57649;42.968;1.608;2023-03-31T03:53:52;13.07;;;3.60;;
70253;SDS011;57649;42.968;1.608;2023-03-31T03:56:17;13.75;;;3.90;;
70253;SDS011;57649;42.968;1.608;2023-03-31T03:58:43;11.30;;;4.28;;
70253;SDS011;57649;42.968;1.608;2023-03-31T04:01:08;10.43;;;4.10;;
70253;SDS011;57649;42.968;1.608;2023-03-31T04:03:34;9.57;;;4.20;;
70253;SDS011;57649;42.968;1.608;2023-03-31T04:05:59;11.52;;;4.55;;
70253;SDS011;57649;42.968;1.608;2023-03-31T04:08:24;9.52;;;4.05;;
70253;SDS011;57649;42.968;1.608;2023-03-31T04:10:50;8.57;;;4.68;;
70253;SDS011;57649;42.968;1.608;2023-03-31T04:13:16;8.93;;;4.13;;
70253;SDS011;57649;42.968;1.608;2023-03-31T04:15:42;10.57;;;4.38;;
70253;SDS011;57649;42.968;1.608;2023-03-31T04:18:08;13.60;;;4.45;;
70253;SDS011;57649;42.968;1.608;2023-03-31T04:20:55;10.57;;;4.15;;
70253;SDS011;57649;42.968;1.608;2023-03-31T04:23:33;11.50;;;4.45;;
70253;SDS011;57649;42.968;1.608;2023-03-31T04:26:10;11.00;;;4.93;;
70253;SDS011;57649;42.968;1.608;2023-03-31T04:28:36;12.73;;;4.63;;
70253;SDS011;57649;42.968;1.608;2023-03-31T04:31:07;7.28;;;4.00;;
70253;SDS011;57649;42.968;1.608;2023-03-31T04:33:34;8.57;;;3.85;;
70253;SDS011;57649;42.968;1.608;2023-03-31T04:36:03;12.82;;;5.47;;
70253;SDS011;57649;42.968;1.608;2023-03-31T04:38:31;13.07;;;4.82;;
70253;SDS011;57649;42.968;1.608;2023-03-31T04:40:59;10.20;;;4.90;;
70253;SDS011;57649;42.968;1.608;2023-03-31T04:43:25;9.95;;;4.60;;
70253;SDS011;57649;42.968;1.608;2023-03-31T04:45:50;9.55;;;4.90;;
70253;SDS011;57649;42.968;1.608;2023-03-31T04:48:16;11.32;;;5.20;;
70253;SDS011;57649;42.968;1.608;2023-03-31T04:50:41;15.38;;;5.40;;
70253;SDS011;57649;42.968;1.608;2023-03-31T04:53:06;12.27;;;5.50;;
70253;SDS011;57649;42.968;1.608;2023-03-31T04:55:32;12.68;;;5.40;;
70253;SDS011;57649;42.968;1.608;2023-03-31T04:57:58;10.65;;;5.63;;
70253;SDS011;57649;42.968;1.608;2023-03-31T05:00:24;10.75;;;5.88;;
70253;SDS011;57649;42.968;1.608;2023-03-31T05:02:50;9.15;;;5.60;;
70253;SDS011;57649;42.968;1.608;2023-03-31T05:05:16;13.43;;;6.30;;
70253;SDS011;57649;42.968;1.608;2023-03-31T05:07:42;13.60;;;5.00;;
70253;SDS011;57649;42.968;1.608;2023-03-31T05:10:08;10.63;;;5.32;;
70253;SDS011;57649;42.968;1.608;2023-03-31T05:12:34;14.13;;;4.72;;
70253;SDS011;57649;42.968;1.608;2023-03-31T05:15:00;10.60;;;4.40;;
70253;SDS011;57649;42.968;1.608;2023-03-31T05:17:26;13.10;;;5.65;;
70253;SDS011;57649;42.968;1.608;2023-03-31T05:19:52;15.73;;;5.72;;
70253;SDS011;57649;42.968;1.608;2023-03-31T05:22:18;15.05;;;5.30;;
70253;SDS011;57649;42.968;1.608;2023-03-31T05:24:44;11.82;;;5.72;;
70253;SDS011;57649;42.968;1.608;2023-03-31T05:27:10;14.35;;;7.03;;
70253;SDS011;57649;42.968;1.608;2023-03-31T05:29:36;9.88;;;5.13;;
70253;SDS011;57649;42.968;1.608;2023-03-31T05:32:01;15.60;;;5.85;;
70253;SDS011;57649;42.968;1.608;2023-03-31T05:34:27;9.88;;;5.38;;
70253;SDS011;57649;42.968;1.608;2023-03-31T05:36:52;10.93;;;5.47;;
70253;SDS011;57649;42.968;1.608;2023-03-31T05:39:18;12.20;;;5.60;;
70253;SDS011;57649;42.968;1.608;2023-03-31T05:41:43;17.40;;;7.50;;
70253;SDS011;57649;42.968;1.608;2023-03-31T05:44:09;15.45;;;5.90;;
70253;SDS011;57649;42.968;1.608;2023-03-31T05:46:35;14.23;;;5.35;;
70253;SDS011;57649;42.968;1.608;2023-03-31T05:49:00;17.23;;;5.80;;
70253;SDS011;57649;42.968;1.608;2023-03-31T05:51:26;11.27;;;5.00;;
70253;SDS011;57649;42.968;1.608;2023-03-31T05:53:52;12.68;;;5.57;;
70253;SDS011;57649;42.968;1.608;2023-03-31T05:56:17;13.85;;;5.28;;
70253;SDS011;57649;42.968;1.608;2023-03-31T05:58:43;14.10;;;5.22;;
70253;SDS011;57649;42.968;1.608;2023-03-31T06:01:09;15.40;;;6.97;;
70253;SDS011;57649;42.968;1.608;2023-03-31T06:03:37;13.48;;;4.85;;
70253;SDS011;57649;42.968;1.608;2023-03-31T06:06:05;14.95;;;5.38;;
70253;SDS011;57649;42.968;1.608;2023-03-31T06:08:32;11.68;;;5.53;;
70253;SDS011;57649;42.968;1.608;2023-03-31T06:10:58;15.40;;;5.68;;
70253;SDS011;57649;42.968;1.608;2023-03-31T06:13:24;13.48;;;5.55;;
70253;SDS011;57649;42.968;1.608;2023-03-31T06:15:57;14.05;;;5.97;;
70253;SDS011;57649;42.968;1.608;2023-03-31T06:18:25;10.00;;;5.28;;
70253;SDS011;57649;42.968;1.608;2023-03-31T06:20:52;23.80;;;5.97;;
70253;SDS011;57649;42.968;1.608;2023-03-31T06:23:18;12.80;;;5.40;;
70253;SDS011;57649;42.968;1.608;2023-03-31T06:25:44;12.85;;;5.20;;
70253;SDS011;57649;42.968;1.608;2023-03-31T06:28:09;11.85;;;5.32;;
70253;SDS011;57649;42.968;1.608;2023-03-31T06:30:35;12.20;;;5.75;;
70253;SDS011;57649;42.968;1.608;2023-03-31T06:33:00;16.92;;;7.30;;
70253;SDS011;57649;42.968;1.608;2023-03-31T06:35:26;20.55;;;7.28;;
70253;SDS011;57649;42.968;1.608;2023-03-31T06:37:51;12.82;;;6.30;;
70253;SDS011;57649;42.968;1.608;2023-03-31T06:40:16;13.95;;;6.93;;
70253;SDS011;57649;42.968;1.608;2023-03-31T06:42:42;19.48;;;7.00;;
70253;SDS011;57649;42.968;1.608;2023-03-31T06:45:08;16.67;;;6.32;;
70253;SDS011;57649;42.968;1.608;2023-03-31T06:47:33;17.90;;;8.05;;
70253;SDS011;57649;42.968;1.608;2023-03-31T06:49:59;22.08;;;7.75;;
70253;SDS011;57649;42.968;1.608;2023-03-31T06:52:24;19.92;;;7.90;;
70253;SDS011;57649;42.968;1.608;2023-03-31T06:54:50;17.80;;;7.93;;
70253;SDS011;57649;42.968;1.608;2023-03-31T06:57:15;17.65;;;6.97;;
70253;SDS011;57649;42.968;1.608;2023-03-31T06:59:40;15.55;;;6.45;;
70253;SDS011;57649;42.968;1.608;2023-03-31T07:02:06;16.20;;;7.10;;
70253;SDS011;57649;42.968;1.608;2023-03-31T07:04:31;19.42;;;6.68;;
70253;SDS011;57649;42.968;1.608;2023-03-31T07:06:57;15.18;;;7.38;;
70253;SDS011;57649;42.968;1.608;2023-03-31T07:09:23;18.85;;;7.25;;
70253;SDS011;57649;42.968;1.608;2023-03-31T07:11:48;17.80;;;7.75;;
70253;SDS011;57649;42.968;1.608;2023-03-31T07:14:14;16.17;;;8.48;;
70253;SDS011;57649;42.968;1.608;2023-03-31T07:16:39;21.55;;;8.23;;
70253;SDS011;57649;42.968;1.608;2023-03-31T07:19:05;18.27;;;7.55;;
70253;SDS011;57649;42.968;1.608;2023-03-31T07:21:31;16.90;;;7.15;;
70253;SDS011;57649;42.968;1.608;2023-03-31T07:23:57;16.65;;;6.95;;
70253;SDS011;57649;42.968;1.608;2023-03-31T07:26:23;21.00;;;7.68;;
70253;SDS011;57649;42.968;1.608;2023-03-31T07:28:48;18.10;;;7.38;;
70253;SDS011;57649;42.968;1.608;2023-03-31T07:31:14;17.50;;;7.03;;
70253;SDS011;57649;42.968;1.608;2023-03-31T07:33:40;15.10;;;7.20;;
70253;SDS011;57649;42.968;1.608;2023-03-31T07:36:06;16.33;;;6.78;;
70253;SDS011;57649;42.968;1.608;2023-03-31T07:38:32;18.83;;;8.50;;
70253;SDS011;57649;42.968;1.608;2023-03-31T07:40:58;17.83;;;7.97;;
70253;SDS011;57649;42.968;1.608;2023-03-31T07:43:24;21.27;;;10.07;;
70253;SDS011;57649;42.968;1.608;2023-03-31T07:45:50;16.58;;;9.43;;
70253;SDS011;57649;42.968;1.608;2023-03-31T07:48:15;21.20;;;9.32;;
70253;SDS011;57649;42.968;1.608;2023-03-31T07:50:41;16.70;;;7.82;;
70253;SDS011;57649;42.968;1.608;2023-03-31T07:53:06;13.13;;;6.90;;
70253;SDS011;57649;42.968;1.608;2023-03-31T07:55:32;13.02;;;6.28;;
70253;SDS011;57649;42.968;1.608;2023-03-31T07:57:58;13.75;;;6.05;;
70253;SDS011;57649;42.968;1.608;2023-03-31T08:00:23;16.00;;;6.55;;
70253;SDS011;57649;42.968;1.608;2023-03-31T08:02:48;18.80;;;6.72;;
70253;SDS011;57649;42.968;1.608;2023-03-31T08:05:15;19.20;;;7.18;;
70253;SDS011;57649;42.968;1.608;2023-03-31T08:07:43;15.68;;;6.25;;
70253;SDS011;57649;42.968;1.608;2023-03-31T08:10:12;17.10;;;6.28;;
70253;SDS011;57649;42.968;1.608;2023-03-31T08:12:40;18.75;;;6.40;;
70253;SDS011;57649;42.968;1.608;2023-03-31T08:15:06;16.20;;;6.35;;
70253;SDS011;57649;42.968;1.608;2023-03-31T08:17:31;20.00;;;6.43;;
70253;SDS011;57649;42.968;1.608;2023-03-31T08:19:57;19.65;;;5.80;;
70253;SDS011;57649;42.968;1.608;2023-03-31T08:22:22;17.73;;;6.40;;
70253;SDS011;57649;42.968;1.608;2023-03-31T08:24:48;21.25;;;5.95;;
70253;SDS011;57649;42.968;1.608;2023-03-31T08:27:13;17.05;;;6.40;;
70253;SDS011;57649;42.968;1.608;2023-03-31T08:29:38;18.90;;;6.05;;
70253;SDS011;57649;42.968;1.608;2023-03-31T08:32:04;21.23;;;6.72;;
70253;SDS011;57649;42.968;1.608;2023-03-31T08:34:30;24.45;;;6.18;;
70253;SDS011;57649;42.968;1.608;2023-03-31T08:36:56;20.02;;;7.07;;
70253;SDS011;57649;42.968;1.608;2023-03-31T08:39:22;18.77;;;6.78;;
70253;SDS011;57649;42.968;1.608;2023-03-31T08:44:28;15.80;;;6.13;;
70253;SDS011;57649;42.968;1.608;2023-03-31T08:46:58;13.63;;;5.35;;
70253;SDS011;57649;42.968;1.608;2023-03-31T08:49:26;19.83;;;7.20;;
70253;SDS011;57649;42.968;1.608;2023-03-31T08:51:57;17.08;;;6.43;;
70253;SDS011;57649;42.968;1.608;2023-03-31T08:56:55;16.55;;;6.22;;
70253;SDS011;57649;42.968;1.608;2023-03-31T08:59:33;17.60;;;6.60;;
70253;SDS011;57649;42.968;1.608;2023-03-31T09:11:57;16.17;;;5.45;;
70253;SDS011;57649;42.968;1.608;2023-03-31T09:14:37;20.05;;;6.22;;
70253;SDS011;57649;42.968;1.608;2023-03-31T09:17:23;21.40;;;6.20;;
70253;SDS011;57649;42.968;1.608;2023-03-31T09:20:19;16.50;;;5.68;;
70253;SDS011;57649;42.968;1.608;2023-03-31T09:22:52;18.38;;;5.70;;
70253;SDS011;57649;42.968;1.608;2023-03-31T09:25:41;13.50;;;5.05;;
70253;SDS011;57649;42.968;1.608;2023-03-31T09:28:13;23.23;;;5.93;;
70253;SDS011;57649;42.968;1.608;2023-03-31T09:30:47;15.25;;;5.47;;
70253;SDS011;57649;42.968;1.608;2023-03-31T09:33:27;22.70;;;5.60;;
70253;SDS011;57649;42.968;1.608;2023-03-31T09:35:57;16.13;;;5.63;;
70253;SDS011;57649;42.968;1.608;2023-03-31T09:38:24;15.70;;;5.18;;
70253;SDS011;57649;42.968;1.608;2023-03-31T09:40:53;23.50;;;6.90;;
70253;SDS011;57649;42.968;1.608;2023-03-31T09:45:52;21.67;;;5.63;;
70253;SDS011;57649;42.968;1.608;2023-03-31T09:48:20;23.23;;;6.15;;
70253;SDS011;57649;42.968;1.608;2023-03-31T09:50:54;22.52;;;5.70;;
70253;SDS011;57649;42.968;1.608;2023-03-31T09:56:13;29.05;;;7.53;;
70253;SDS011;57649;42.968;1.608;2023-03-31T09:59:15;24.90;;;6.85;;
70253;SDS011;57649;42.968;1.608;2023-03-31T10:01:45;22.73;;;6.65;;
70253;SDS011;57649;42.968;1.608;2023-03-31T10:04:21;23.00;;;6.82;;
70253;SDS011;57649;42.968;1.608;2023-03-31T10:06:48;25.17;;;6.85;;
70253;SDS011;57649;42.968;1.608;2023-03-31T10:09:17;22.40;;;7.20;;
70253;SDS011;57649;42.968;1.608;2023-03-31T10:14:46;29.40;;;6.75;;
70253;SDS011;57649;42.968;1.608;2023-03-31T10:17:19;24.98;;;6.68;;
70253;SDS011;57649;42.968;1.608;2023-03-31T10:19:51;20.05;;;6.03;;
70253;SDS011;57649;42.968;1.608;2023-03-31T10:22:28;21.48;;;6.63;;
70253;SDS011;57649;42.968;1.608;2023-03-31T10:25:06;21.60;;;7.40;;
70253;SDS011;57649;42.968;1.608;2023-03-31T10:27:52;21.58;;;6.90;;
70253;SDS011;57649;42.968;1.608;2023-03-31T10:30:20;28.42;;;8.73;;
70253;SDS011;57649;42.968;1.608;2023-03-31T10:32:48;26.02;;;7.75;;
70253;SDS011;57649;42.968;1.608;2023-03-31T10:37:46;22.48;;;7.15;;
70253;SDS011;57649;42.968;1.608;2023-03-31T10:40:20;23.58;;;7.50;;
70253;SDS011;57649;42.968;1.608;2023-03-31T10:42:49;23.70;;;7.07;;
70253;SDS011;57649;42.968;1.608;2023-03-31T10:45:40;28.02;;;9.18;;
70253;SDS011;57649;42.968;1.608;2023-03-31T10:48:22;26.05;;;7.95;;
70253;SDS011;57649;42.968;1.608;2023-03-31T10:53:29;28.38;;;8.77;;
70253;SDS011;57649;42.968;1.608;2023-03-31T10:58:36;25.48;;;9.75;;
70253;SDS011;57649;42.968;1.608;2023-03-31T11:09:36;36.88;;;8.45;;
70253;SDS011;57649;42.968;1.608;2023-03-31T11:12:25;28.17;;;9.63;;
70253;SDS011;57649;42.968;1.608;2023-03-31T11:23:14;29.83;;;8.40;;
70253;SDS011;57649;42.968;1.608;2023-03-31T11:26:04;25.50;;;8.18;;
70253;SDS011;57649;42.968;1.608;2023-03-31T11:48:04;23.17;;;6.22;;
70253;SDS011;57649;42.968;1.608;2023-03-31T11:50:36;25.00;;;6.30;;
70253;SDS011;57649;42.968;1.608;2023-03-31T11:53:13;23.20;;;5.78;;
70253;SDS011;57649;42.968;1.608;2023-03-31T11:55:42;20.80;;;5.90;;
70253;SDS011;57649;42.968;1.608;2023-03-31T11:58:15;22.25;;;5.95;;
70253;SDS011;57649;42.968;1.608;2023-03-31T12:03:25;20.88;;;5.85;;
70253;SDS011;57649;42.968;1.608;2023-03-31T12:05:54;23.75;;;6.65;;
70253;SDS011;57649;42.968;1.608;2023-03-31T12:14:20;25.60;;;7.97;;
70253;SDS011;57649;42.968;1.608;2023-03-31T12:16:54;30.77;;;8.55;;
70253;SDS011;57649;42.968;1.608;2023-03-31T12:20:10;28.05;;;8.98;;
70253;SDS011;57649;42.968;1.608;2023-03-31T12:22:29;30.10;;;10.30;;
70253;SDS011;57649;42.968;1.608;2023-03-31T12:25:00;24.75;;;8.45;;
70253;SDS011;57649;42.968;1.608;2023-03-31T12:30:18;32.20;;;10.13;;
70253;SDS011;57649;42.968;1.608;2023-03-31T12:32:48;28.80;;;10.57;;
70253;SDS011;57649;42.968;1.608;2023-03-31T12:37:54;35.15;;;11.07;;
70253;SDS011;57649;42.968;1.608;2023-03-31T12:40:40;29.60;;;11.15;;
70253;SDS011;57649;42.968;1.608;2023-03-31T12:59:33;36.53;;;12.98;;
70253;SDS011;57649;42.968;1.608;2023-03-31T13:02:23;36.95;;;13.60;;
70253;SDS011;57649;42.968;1.608;2023-03-31T13:04:49;38.92;;;14.48;;
70253;SDS011;57649;42.968;1.608;2023-03-31T13:09:45;32.92;;;12.20;;
70253;SDS011;57649;42.968;1.608;2023-03-31T13:12:22;36.85;;;12.88;;
70253;SDS011;57649;42.968;1.608;2023-03-31T13:14:51;43.40;;;13.65;;
70253;SDS011;57649;42.968;1.608;2023-03-31T13:17:30;45.75;;;14.00;;
70253;SDS011;57649;42.968;1.608;2023-03-31T13:20:16;46.40;;;14.15;;
70253;SDS011;57649;42.968;1.608;2023-03-31T13:22:58;37.08;;;13.98;;
70253;SDS011;57649;42.968;1.608;2023-03-31T13:25:31;40.65;;;14.13;;
70253;SDS011;57649;42.968;1.608;2023-03-31T13:30:45;38.10;;;13.55;;
70253;SDS011;57649;42.968;1.608;2023-03-31T13:42:19;32.50;;;14.80;;
70253;SDS011;57649;42.968;1.608;2023-03-31T13:45:33;39.85;;;15.15;;
70253;SDS011;57649;42.968;1.608;2023-03-31T13:48:05;37.20;;;14.18;;
70253;SDS011;57649;42.968;1.608;2023-03-31T13:58:54;37.63;;;14.63;;
70253;SDS011;57649;42.968;1.608;2023-03-31T14:04:45;40.30;;;16.55;;
70253;SDS011;57649;42.968;1.608;2023-03-31T14:07:21;38.35;;;16.13;;
70253;SDS011;57649;42.968;1.608;2023-03-31T14:09:56;50.63;;;16.40;;
70253;SDS011;57649;42.968;1.608;2023-03-31T14:15:02;36.88;;;16.30;;
70253;SDS011;57649;42.968;1.608;2023-03-31T14:17:30;38.83;;;16.20;;
70253;SDS011;57649;42.968;1.608;2023-03-31T14:25:56;41.28;;;16.40;;
70253;SDS011;57649;42.968;1.608;2023-03-31T14:28:57;37.17;;;15.25;;
70253;SDS011;57649;42.968;1.608;2023-03-31T14:36:21;39.58;;;15.52;;
70253;SDS011;57649;42.968;1.608;2023-03-31T14:38:50;38.20;;;15.15;;
70253;SDS011;57649;42.968;1.608;2023-03-31T14:41:19;42.90;;;15.68;;
70253;SDS011;57649;42.968;1.608;2023-03-31T14:43:53;45.20;;;16.00;;
70253;SDS011;57649;42.968;1.608;2023-03-31T14:46:21;35.50;;;15.23;;
70253;SDS011;57649;42.968;1.608;2023-03-31T14:48:47;33.55;;;15.25;;
70253;SDS011;57649;42.968;1.608;2023-03-31T14:51:16;36.72;;;16.42;;
70253;SDS011;57649;42.968;1.608;2023-03-31T14:53:47;39.72;;;15.25;;
70253;SDS011;57649;42.968;1.608;2023-03-31T14:56:20;36.13;;;16.65;;
70253;SDS011;57649;42.968;1.608;2023-03-31T14:58:57;41.03;;;15.45;;
70253;SDS011;57649;42.968;1.608;2023-03-31T15:01:25;42.22;;;16.77;;
70253;SDS011;57649;42.968;1.608;2023-03-31T15:03:58;40.30;;;17.92;;
70253;SDS011;57649;42.968;1.608;2023-03-31T15:06:25;38.40;;;15.65;;
70253;SDS011;57649;42.968;1.608;2023-03-31T15:08:51;39.38;;;16.48;;
70253;SDS011;57649;42.968;1.608;2023-03-31T15:11:21;33.78;;;15.68;;
70253;SDS011;57649;42.968;1.608;2023-03-31T15:13:47;39.80;;;16.02;;
70253;SDS011;57649;42.968;1.608;2023-03-31T15:21:40;38.00;;;15.95;;
70253;SDS011;57649;42.968;1.608;2023-03-31T15:24:06;37.53;;;14.75;;
70253;SDS011;57649;42.968;1.608;2023-03-31T15:26:36;39.35;;;15.57;;
70253;SDS011;57649;42.968;1.608;2023-03-31T15:29:09;39.38;;;14.82;;
70253;SDS011;57649;42.968;1.608;2023-03-31T15:31:36;39.70;;;14.23;;
70253;SDS011;57649;42.968;1.608;2023-03-31T15:34:16;38.00;;;14.40;;
70253;SDS011;57649;42.968;1.608;2023-03-31T15:36:48;33.30;;;13.82;;
70253;SDS011;57649;42.968;1.608;2023-03-31T15:39:13;35.03;;;13.80;;
70253;SDS011;57649;42.968;1.608;2023-03-31T15:41:39;37.63;;;13.55;;
70253;SDS011;57649;42.968;1.608;2023-03-31T15:44:07;33.28;;;13.45;;
70253;SDS011;57649;42.968;1.608;2023-03-31T15:49:30;31.80;;;13.60;;
70253;SDS011;57649;42.968;1.608;2023-03-31T15:51:55;37.17;;;13.68;;
70253;SDS011;57649;42.968;1.608;2023-03-31T15:54:38;38.22;;;14.07;;
70253;SDS011;57649;42.968;1.608;2023-03-31T15:57:06;34.33;;;13.63;;
70253;SDS011;57649;42.968;1.608;2023-03-31T15:59:46;35.13;;;13.20;;
70253;SDS011;57649;42.968;1.608;2023-03-31T16:02:17;36.47;;;13.15;;
70253;SDS011;57649;42.968;1.608;2023-03-31T16:04:47;28.08;;;12.38;;
70253;SDS011;57649;42.968;1.608;2023-03-31T16:07:21;34.65;;;11.82;;
70253;SDS011;57649;42.968;1.608;2023-03-31T16:09:55;35.85;;;12.95;;
70253;SDS011;57649;42.968;1.608;2023-03-31T16:12:23;32.03;;;12.68;;
70253;SDS011;57649;42.968;1.608;2023-03-31T16:15:35;30.15;;;12.32;;
70253;SDS011;57649;42.968;1.608;2023-03-31T16:17:54;32.45;;;12.65;;
70253;SDS011;57649;42.968;1.608;2023-03-31T16:20:28;25.75;;;11.60;;
70253;SDS011;57649;42.968;1.608;2023-03-31T16:23:16;34.88;;;12.52;;
70253;SDS011;57649;42.968;1.608;2023-03-31T16:25:45;32.15;;;12.25;;
70253;SDS011;57649;42.968;1.608;2023-03-31T16:28:12;29.30;;;12.50;;
70253;SDS011;57649;42.968;1.608;2023-03-31T16:30:50;30.40;;;11.98;;
70253;SDS011;57649;42.968;1.608;2023-03-31T16:33:16;38.97;;;11.88;;
70253;SDS011;57649;42.968;1.608;2023-03-31T16:35:45;33.88;;;11.85;;
70253;SDS011;57649;42.968;1.608;2023-03-31T16:38:20;31.08;;;10.52;;
70253;SDS011;57649;42.968;1.608;2023-03-31T16:40:47;28.73;;;11.10;;
70253;SDS011;57649;42.968;1.608;2023-03-31T16:43:22;27.55;;;10.77;;
70253;SDS011;57649;42.968;1.608;2023-03-31T16:45:52;32.13;;;10.25;;
70253;SDS011;57649;42.968;1.608;2023-03-31T16:48:20;29.30;;;10.75;;
70253;SDS011;57649;42.968;1.608;2023-03-31T16:50:48;29.63;;;11.02;;
70253;SDS011;57649;42.968;1.608;2023-03-31T16:53:16;33.97;;;10.68;;
70253;SDS011;57649;42.968;1.608;2023-03-31T16:55:43;27.00;;;10.60;;
70253;SDS011;57649;42.968;1.608;2023-03-31T16:58:09;25.05;;;9.93;;
70253;SDS011;57649;42.968;1.608;2023-03-31T17:00:35;26.92;;;9.77;;
70253;SDS011;57649;42.968;1.608;2023-03-31T17:03:04;28.73;;;10.23;;
70253;SDS011;57649;42.968;1.608;2023-03-31T17:05:29;25.67;;;9.55;;
70253;SDS011;57649;42.968;1.608;2023-03-31T17:07:57;31.13;;;9.43;;
70253;SDS011;57649;42.968;1.608;2023-03-31T17:10:22;32.55;;;11.23;;
70253;SDS011;57649;42.968;1.608;2023-03-31T17:12:48;23.33;;;8.82;;
70253;SDS011;57649;42.968;1.608;2023-03-31T17:15:13;26.27;;;8.98;;
70253;SDS011;57649;42.968;1.608;2023-03-31T17:17:39;24.65;;;9.10;;
70253;SDS011;57649;42.968;1.608;2023-03-31T17:20:05;33.53;;;9.73;;
70253;SDS011;57649;42.968;1.608;2023-03-31T17:22:32;27.63;;;9.07;;
70253;SDS011;57649;42.968;1.608;2023-03-31T17:24:57;28.88;;;9.05;;
70253;SDS011;57649;42.968;1.608;2023-03-31T17:27:23;26.58;;;9.23;;
70253;SDS011;57649;42.968;1.608;2023-03-31T17:29:50;34.20;;;10.10;;
70253;SDS011;57649;42.968;1.608;2023-03-31T17:32:15;25.77;;;8.25;;
70253;SDS011;57649;42.968;1.608;2023-03-31T17:34:41;29.33;;;9.07;;
70253;SDS011;57649;42.968;1.608;2023-03-31T17:37:07;31.17;;;8.85;;
70253;SDS011;57649;42.968;1.608;2023-03-31T17:39:32;27.17;;;9.40;;
70253;SDS011;57649;42.968;1.608;2023-03-31T17:41:58;28.27;;;8.75;;
70253;SDS011;57649;42.968;1.608;2023-03-31T17:44:23;24.48;;;8.75;;
70253;SDS011;57649;42.968;1.608;2023-03-31T17:46:49;33.05;;;9.30;;
70253;SDS011;57649;42.968;1.608;2023-03-31T17:49:14;29.13;;;10.02;;
70253;SDS011;57649;42.968;1.608;2023-03-31T17:51:41;29.90;;;10.00;;
70253;SDS011;57649;42.968;1.608;2023-03-31T17:54:08;27.33;;;8.82;;
70253;SDS011;57649;42.968;1.608;2023-03-31T17:56:35;21.95;;;8.25;;
70253;SDS011;57649;42.968;1.608;2023-03-31T17:59:01;22.70;;;7.20;;
70253;SDS011;57649;42.968;1.608;2023-03-31T18:01:28;25.63;;;7.55;;
70253;SDS011;57649;42.968;1.608;2023-03-31T18:03:54;21.02;;;6.78;;
70253;SDS011;57649;42.968;1.608;2023-03-31T18:06:20;22.33;;;7.50;;